PSW1902 URSS-ULLI
Flight info
| Callsign | PSW1902 |
|---|---|
| Flight time | 2h 31m |
| Altitude | 36000 |
| Route | ADNET1X ADNET W79 AMEPU A100 KL L91 KEPED/K0867F340 T561 ODATI T875 GENPA GENPA1B |
| Aircraft | T154/M-SDGRWY/S |
Departure
| Time | 2026-05-01 10:40 |
|---|---|
| Airport | Sochi International Airport (URSS) |
Arrival
| Time | 2026-05-01 13:11 |
|---|---|
| Airport | Pulkovo Airport (ULLI) |
| Time | Latitude | Longitude | Altitude | Speed | Heading |
|---|---|---|---|---|---|
| 2026-05-01 10:12 | 43.44854 | 39.94490 | 99 ft | 0 kts | 334° |
| 2026-05-01 10:26 | 43.44831 | 39.94506 | 99 ft | 3 kts | 333° |
| 2026-05-01 10:27 | 43.44797 | 39.94530 | 99 ft | 3 kts | 333° |
| 2026-05-01 10:27 | 43.44762 | 39.94550 | 99 ft | 3 kts | 348° |
| 2026-05-01 10:28 | 43.44744 | 39.94548 | 99 ft | 3 kts | 20° |
| 2026-05-01 10:28 | 43.44726 | 39.94504 | 99 ft | 3 kts | 66° |
| 2026-05-01 10:28 | 43.44725 | 39.94502 | 99 ft | 0 kts | 66° |
| 2026-05-01 10:32 | 43.44726 | 39.94504 | 99 ft | 1 kts | 66° |
| 2026-05-01 10:33 | 43.44744 | 39.94560 | 99 ft | 3 kts | 66° |
| 2026-05-01 10:33 | 43.44758 | 39.94604 | 99 ft | 2 kts | 66° |
| 2026-05-01 10:34 | 43.44764 | 39.94622 | 99 ft | 2 kts | 66° |
| 2026-05-01 10:34 | 43.44768 | 39.94635 | 99 ft | 1 kts | 66° |
| 2026-05-01 10:34 | 43.44775 | 39.94655 | 99 ft | 5 kts | 64° |
| 2026-05-01 10:35 | 43.44819 | 39.94779 | 99 ft | 7 kts | 64° |
| 2026-05-01 10:35 | 43.44838 | 39.94834 | 99 ft | 6 kts | 65° |
| 2026-05-01 10:35 | 43.44856 | 39.94886 | 99 ft | 6 kts | 65° |
| 2026-05-01 10:35 | 43.44874 | 39.94938 | 99 ft | 6 kts | 65° |
| 2026-05-01 10:36 | 43.44913 | 39.95053 | 99 ft | 7 kts | 65° |
| 2026-05-01 10:36 | 43.44934 | 39.95114 | 99 ft | 7 kts | 64° |
| 2026-05-01 10:36 | 43.44955 | 39.95175 | 99 ft | 7 kts | 64° |
| 2026-05-01 10:37 | 43.44976 | 39.95237 | 99 ft | 7 kts | 64° |
| 2026-05-01 10:37 | 43.45019 | 39.95365 | 99 ft | 8 kts | 64° |
| 2026-05-01 10:37 | 43.45043 | 39.95431 | 99 ft | 8 kts | 64° |
| 2026-05-01 10:38 | 43.45052 | 39.95500 | 99 ft | 7 kts | 116° |
| 2026-05-01 10:38 | 43.45013 | 39.95542 | 99 ft | 7 kts | 155° |
| 2026-05-01 10:38 | 43.44967 | 39.95541 | 99 ft | 7 kts | 222° |
| 2026-05-01 10:38 | 43.44955 | 39.95518 | 99 ft | 0 kts | 242° |
| 2026-05-01 10:39 | 43.44932 | 39.95456 | 99 ft | 27 kts | 245° |
| 2026-05-01 10:39 | 43.44770 | 39.94983 | 99 ft | 82 kts | 245° |
| 2026-05-01 10:39 | 43.44447 | 39.94034 | 99 ft | 136 kts | 245° |
| 2026-05-01 10:40 | 43.43973 | 39.92661 | 144 ft | 181 kts | 245° |
| 2026-05-01 10:40 | 43.43423 | 39.91064 | 858 ft | 180 kts | 247° |
| 2026-05-01 10:40 | 43.43088 | 39.89420 | 1538 ft | 188 kts | 270° |
| 2026-05-01 10:40 | 43.43429 | 39.87581 | 1726 ft | 209 kts | 301° |
| 2026-05-01 10:41 | 43.44309 | 39.85838 | 2179 ft | 238 kts | 307° |
| 2026-05-01 10:41 | 43.45333 | 39.83914 | 2940 ft | 255 kts | 306° |
| 2026-05-01 10:41 | 43.47459 | 39.79892 | 5158 ft | 262 kts | 305° |
| 2026-05-01 10:42 | 43.48170 | 39.78548 | 5927 ft | 262 kts | 305° |
| 2026-05-01 10:42 | 43.49241 | 39.76510 | 7023 ft | 264 kts | 304° |
| 2026-05-01 10:42 | 43.50326 | 39.74438 | 7965 ft | 269 kts | 304° |
| 2026-05-01 10:42 | 43.51421 | 39.72326 | 8919 ft | 273 kts | 303° |
| 2026-05-01 10:43 | 43.52534 | 39.70177 | 9841 ft | 277 kts | 302° |
| 2026-05-01 10:43 | 43.53679 | 39.67973 | 10533 ft | 293 kts | 301° |
| 2026-05-01 10:43 | 43.54921 | 39.65567 | 10884 ft | 320 kts | 300° |
| 2026-05-01 10:43 | 43.56251 | 39.62974 | 11421 ft | 339 kts | 300° |
| 2026-05-01 10:44 | 43.57618 | 39.60309 | 12512 ft | 338 kts | 298° |
| 2026-05-01 10:44 | 43.58978 | 39.57673 | 13626 ft | 339 kts | 298° |
| 2026-05-01 10:44 | 43.60360 | 39.55014 | 14631 ft | 343 kts | 302° |
| 2026-05-01 10:44 | 43.62150 | 39.52760 | 15596 ft | 359 kts | 321° |
| 2026-05-01 10:45 | 43.64495 | 39.51357 | 16488 ft | 377 kts | 341° |
| 2026-05-01 10:45 | 43.67115 | 39.51001 | 17327 ft | 391 kts | 357° |
| 2026-05-01 10:45 | 43.69855 | 39.51457 | 18152 ft | 401 kts | 6° |
| 2026-05-01 10:45 | 43.72596 | 39.52382 | 18941 ft | 409 kts | 12° |
| 2026-05-01 10:46 | 43.75366 | 39.53592 | 19706 ft | 416 kts | 14° |
| 2026-05-01 10:46 | 43.78111 | 39.54939 | 20424 ft | 422 kts | 15° |
| 2026-05-01 10:46 | 43.80880 | 39.56376 | 21129 ft | 427 kts | 16° |
| 2026-05-01 10:46 | 43.83686 | 39.57869 | 21818 ft | 433 kts | 16° |
| 2026-05-01 10:47 | 43.86483 | 39.59354 | 22489 ft | 437 kts | 16° |
| 2026-05-01 10:47 | 43.89340 | 39.60869 | 23147 ft | 441 kts | 16° |
| 2026-05-01 10:47 | 43.92224 | 39.62374 | 23798 ft | 445 kts | 15° |
| 2026-05-01 10:47 | 43.95154 | 39.63889 | 24422 ft | 449 kts | 15° |
| 2026-05-01 10:48 | 43.98100 | 39.65388 | 25044 ft | 453 kts | 15° |
| 2026-05-01 10:48 | 44.01082 | 39.66882 | 25653 ft | 456 kts | 14° |
| 2026-05-01 10:48 | 44.04095 | 39.68368 | 26206 ft | 461 kts | 14° |
| 2026-05-01 10:48 | 44.07131 | 39.69841 | 26758 ft | 465 kts | 13° |
| 2026-05-01 10:49 | 44.10216 | 39.71328 | 27308 ft | 468 kts | 13° |
| 2026-05-01 10:49 | 44.13260 | 39.72793 | 27831 ft | 471 kts | 13° |
| 2026-05-01 10:49 | 44.16381 | 39.74279 | 28325 ft | 474 kts | 13° |
| 2026-05-01 10:49 | 44.19519 | 39.75749 | 28787 ft | 478 kts | 13° |
| 2026-05-01 10:50 | 44.22679 | 39.77217 | 29246 ft | 481 kts | 12° |
| 2026-05-01 10:50 | 44.25876 | 39.78700 | 29699 ft | 483 kts | 12° |
| 2026-05-01 10:50 | 44.29059 | 39.80178 | 30115 ft | 486 kts | 12° |
| 2026-05-01 10:50 | 44.32307 | 39.81529 | 30578 ft | 482 kts | 5° |
| 2026-05-01 10:51 | 44.35602 | 39.82273 | 31000 ft | 477 kts | 359° |
| 2026-05-01 10:51 | 44.38913 | 39.82565 | 31319 ft | 476 kts | 354° |
| 2026-05-01 10:51 | 44.42235 | 39.82542 | 31640 ft | 476 kts | 350° |
| 2026-05-01 10:51 | 44.45508 | 39.82308 | 31968 ft | 476 kts | 348° |
| 2026-05-01 10:52 | 44.48817 | 39.81921 | 32253 ft | 478 kts | 346° |
| 2026-05-01 10:52 | 44.52139 | 39.81433 | 32540 ft | 480 kts | 345° |
| 2026-05-01 10:52 | 44.55457 | 39.80869 | 32831 ft | 482 kts | 345° |
| 2026-05-01 10:52 | 44.58796 | 39.80250 | 33179 ft | 481 kts | 344° |
| 2026-05-01 10:53 | 44.62114 | 39.79609 | 33574 ft | 480 kts | 344° |
| 2026-05-01 10:53 | 44.65376 | 39.78954 | 33944 ft | 479 kts | 343° |
| 2026-05-01 10:53 | 44.68720 | 39.78253 | 34311 ft | 478 kts | 343° |
| 2026-05-01 10:53 | 44.71993 | 39.77552 | 34651 ft | 478 kts | 343° |
| 2026-05-01 10:54 | 44.75302 | 39.76859 | 34997 ft | 478 kts | 343° |
| 2026-05-01 10:54 | 44.78576 | 39.76182 | 35325 ft | 477 kts | 343° |
| 2026-05-01 10:54 | 44.81871 | 39.75501 | 35630 ft | 477 kts | 343° |
| 2026-05-01 10:54 | 44.85163 | 39.74816 | 35924 ft | 477 kts | 344° |
| 2026-05-01 10:55 | 44.88440 | 39.74129 | 36228 ft | 476 kts | 344° |
| 2026-05-01 10:55 | 44.91731 | 39.73436 | 36519 ft | 476 kts | 344° |
| 2026-05-01 10:55 | 44.95018 | 39.72764 | 36793 ft | 476 kts | 345° |
| 2026-05-01 10:55 | 44.98298 | 39.72104 | 37072 ft | 476 kts | 345° |
| 2026-05-01 10:56 | 45.01577 | 39.71446 | 37330 ft | 476 kts | 345° |
| 2026-05-01 10:56 | 45.04851 | 39.70786 | 37571 ft | 476 kts | 345° |
| 2026-05-01 10:56 | 45.08124 | 39.70121 | 37817 ft | 475 kts | 345° |
| 2026-05-01 10:56 | 45.11403 | 39.69447 | 38017 ft | 476 kts | 345° |
| 2026-05-01 10:57 | 45.14685 | 39.68764 | 38139 ft | 478 kts | 345° |
| 2026-05-01 10:57 | 45.21393 | 39.67745 | 38138 ft | 491 kts | 350° |
| 2026-05-01 10:58 | 45.28303 | 39.67509 | 38139 ft | 501 kts | 355° |
| 2026-05-01 10:58 | 45.35344 | 39.67963 | 38135 ft | 508 kts | 358° |
| 2026-05-01 10:59 | 45.42422 | 39.68598 | 38132 ft | 512 kts | 358° |
| 2026-05-01 10:59 | 45.49556 | 39.69197 | 38130 ft | 515 kts | 358° |
| 2026-05-01 11:00 | 45.56723 | 39.69762 | 38130 ft | 517 kts | 357° |
| 2026-05-01 11:00 | 45.63917 | 39.70263 | 38131 ft | 518 kts | 357° |
| 2026-05-01 11:01 | 45.71091 | 39.70764 | 38129 ft | 512 kts | 357° |
| 2026-05-01 11:01 | 45.78171 | 39.71236 | 38126 ft | 509 kts | 357° |
| 2026-05-01 11:02 | 45.85254 | 39.71696 | 38124 ft | 509 kts | 357° |
| 2026-05-01 11:02 | 45.92284 | 39.72167 | 38124 ft | 509 kts | 357° |
| 2026-05-01 11:03 | 45.99356 | 39.72650 | 38123 ft | 508 kts | 357° |
| 2026-05-01 11:03 | 46.06428 | 39.73136 | 38134 ft | 508 kts | 357° |
| 2026-05-01 11:04 | 46.13506 | 39.73634 | 38133 ft | 509 kts | 357° |
| 2026-05-01 11:04 | 46.20580 | 39.74126 | 38131 ft | 509 kts | 357° |
| 2026-05-01 11:05 | 46.27657 | 39.74610 | 38133 ft | 509 kts | 356° |
| 2026-05-01 11:05 | 46.34733 | 39.75135 | 38133 ft | 509 kts | 358° |
| 2026-05-01 11:06 | 46.41814 | 39.75761 | 38133 ft | 509 kts | 358° |
| 2026-05-01 11:06 | 46.48881 | 39.76433 | 38129 ft | 510 kts | 358° |
| 2026-05-01 11:07 | 46.59465 | 39.77446 | 38131 ft | 510 kts | 358° |
| 2026-05-01 11:07 | 46.66544 | 39.78041 | 38132 ft | 508 kts | 358° |
| 2026-05-01 11:08 | 46.73638 | 39.78616 | 38133 ft | 508 kts | 358° |
| 2026-05-01 11:09 | 46.84239 | 39.79505 | 38133 ft | 508 kts | 358° |
| 2026-05-01 11:09 | 46.91311 | 39.80102 | 38134 ft | 508 kts | 358° |
| 2026-05-01 11:10 | 47.01919 | 39.81014 | 38133 ft | 508 kts | 358° |
| 2026-05-01 11:10 | 47.08982 | 39.81579 | 38133 ft | 508 kts | 358° |
| 2026-05-01 11:11 | 47.16047 | 39.82237 | 38139 ft | 509 kts | 0° |
| 2026-05-01 11:11 | 47.23048 | 39.83635 | 38142 ft | 513 kts | 5° |
| 2026-05-01 11:12 | 47.30053 | 39.85852 | 38141 ft | 516 kts | 9° |
| 2026-05-01 11:12 | 47.37016 | 39.88523 | 38136 ft | 516 kts | 10° |
| 2026-05-01 11:13 | 47.43116 | 39.90812 | 38137 ft | 516 kts | 9° |
| 2026-05-01 11:13 | 47.50068 | 39.93538 | 38139 ft | 517 kts | 11° |
| 2026-05-01 11:14 | 47.56967 | 39.96399 | 38140 ft | 517 kts | 11° |
| 2026-05-01 11:14 | 47.63930 | 39.99406 | 38143 ft | 517 kts | 12° |
| 2026-05-01 11:15 | 47.70810 | 40.02355 | 38141 ft | 517 kts | 11° |
| 2026-05-01 11:15 | 47.77722 | 40.05295 | 38142 ft | 516 kts | 12° |
| 2026-05-01 11:16 | 47.83481 | 40.07791 | 38143 ft | 517 kts | 12° |
| 2026-05-01 11:16 | 47.90409 | 40.10619 | 38149 ft | 515 kts | 9° |
| 2026-05-01 11:17 | 47.97399 | 40.12947 | 38147 ft | 513 kts | 7° |
| 2026-05-01 11:17 | 48.04428 | 40.14917 | 38147 ft | 512 kts | 5° |
| 2026-05-01 11:18 | 48.11433 | 40.16592 | 38148 ft | 511 kts | 4° |
| 2026-05-01 11:18 | 48.18478 | 40.18061 | 38150 ft | 511 kts | 2° |
| 2026-05-01 11:19 | 48.25529 | 40.19425 | 38153 ft | 510 kts | 3° |
| 2026-05-01 11:19 | 48.32568 | 40.20842 | 38151 ft | 510 kts | 3° |
| 2026-05-01 11:20 | 48.39613 | 40.22280 | 38151 ft | 510 kts | 3° |
| 2026-05-01 11:20 | 48.46662 | 40.23726 | 38154 ft | 510 kts | 3° |
| 2026-05-01 11:21 | 48.53697 | 40.25180 | 38154 ft | 510 kts | 3° |
| 2026-05-01 11:21 | 48.60685 | 40.26688 | 38157 ft | 509 kts | 3° |
| 2026-05-01 11:22 | 48.67705 | 40.28169 | 38157 ft | 509 kts | 3° |
| 2026-05-01 11:22 | 48.74730 | 40.29632 | 38158 ft | 509 kts | 3° |
| 2026-05-01 11:23 | 48.81748 | 40.31068 | 38161 ft | 509 kts | 4° |
| 2026-05-01 11:23 | 48.88804 | 40.32568 | 38180 ft | 508 kts | 4° |
| 2026-05-01 11:24 | 48.95754 | 40.34107 | 38179 ft | 508 kts | 4° |
| 2026-05-01 11:25 | 49.06260 | 40.36437 | 38179 ft | 507 kts | 4° |
| 2026-05-01 11:25 | 49.16750 | 40.38724 | 38181 ft | 507 kts | 4° |
| 2026-05-01 11:26 | 49.27240 | 40.40963 | 38180 ft | 506 kts | 4° |
| 2026-05-01 11:27 | 49.34217 | 40.42466 | 38182 ft | 506 kts | 5° |
| 2026-05-01 11:27 | 49.41190 | 40.43950 | 38183 ft | 506 kts | 4° |
| 2026-05-01 11:28 | 49.48171 | 40.45157 | 38207 ft | 501 kts | 355° |
| 2026-05-01 11:28 | 49.55014 | 40.43682 | 38200 ft | 494 kts | 342° |
| 2026-05-01 11:29 | 49.64771 | 40.38756 | 38191 ft | 491 kts | 335° |
| 2026-05-01 11:30 | 49.74259 | 40.32807 | 38189 ft | 490 kts | 334° |
| 2026-05-01 11:30 | 49.80538 | 40.28684 | 38191 ft | 490 kts | 333° |
| 2026-05-01 11:31 | 49.86783 | 40.24436 | 38191 ft | 490 kts | 333° |
| 2026-05-01 11:31 | 49.92961 | 40.20150 | 38192 ft | 490 kts | 333° |
| 2026-05-01 11:32 | 49.99187 | 40.15793 | 38193 ft | 490 kts | 333° |
| 2026-05-01 11:32 | 50.05403 | 40.11422 | 38195 ft | 490 kts | 333° |
| 2026-05-01 11:33 | 50.11620 | 40.07041 | 38196 ft | 490 kts | 333° |
| 2026-05-01 11:33 | 50.17834 | 40.02659 | 38197 ft | 490 kts | 333° |
| 2026-05-01 11:34 | 50.24057 | 39.98293 | 38201 ft | 490 kts | 333° |
| 2026-05-01 11:34 | 50.30299 | 39.94100 | 38201 ft | 490 kts | 334° |
| 2026-05-01 11:35 | 50.36572 | 39.89906 | 38202 ft | 490 kts | 334° |
| 2026-05-01 11:35 | 50.42847 | 39.85666 | 38202 ft | 490 kts | 334° |
| 2026-05-01 11:36 | 50.49111 | 39.81401 | 38204 ft | 490 kts | 334° |
| 2026-05-01 11:36 | 50.55352 | 39.77070 | 38206 ft | 490 kts | 333° |
| 2026-05-01 11:37 | 50.61560 | 39.72644 | 38207 ft | 490 kts | 333° |
| 2026-05-01 11:37 | 50.67720 | 39.68197 | 38207 ft | 490 kts | 333° |
| 2026-05-01 11:38 | 50.73907 | 39.63706 | 38213 ft | 489 kts | 333° |
| 2026-05-01 11:38 | 50.80100 | 39.59225 | 38213 ft | 489 kts | 333° |
| 2026-05-01 11:39 | 50.86312 | 39.54759 | 38215 ft | 490 kts | 334° |
| 2026-05-01 11:39 | 50.92517 | 39.50292 | 38214 ft | 490 kts | 334° |
| 2026-05-01 11:40 | 50.98717 | 39.45773 | 38215 ft | 489 kts | 333° |
| 2026-05-01 11:40 | 51.04916 | 39.41279 | 38215 ft | 490 kts | 334° |
| 2026-05-01 11:41 | 51.11029 | 39.36480 | 38231 ft | 488 kts | 327° |
| 2026-05-01 11:41 | 51.16491 | 39.30135 | 38232 ft | 486 kts | 316° |
| 2026-05-01 11:42 | 51.21152 | 39.22353 | 38227 ft | 484 kts | 308° |
| 2026-05-01 11:42 | 51.25197 | 39.13774 | 38223 ft | 484 kts | 304° |
| 2026-05-01 11:43 | 51.29113 | 39.05012 | 38222 ft | 484 kts | 306° |
| 2026-05-01 11:43 | 51.33174 | 38.96469 | 38222 ft | 484 kts | 307° |
| 2026-05-01 11:44 | 51.39521 | 38.83831 | 38218 ft | 485 kts | 308° |
| 2026-05-01 11:44 | 51.43759 | 38.75419 | 38218 ft | 485 kts | 308° |
| 2026-05-01 11:45 | 51.47947 | 38.67005 | 38220 ft | 485 kts | 308° |
| 2026-05-01 11:45 | 51.52115 | 38.58447 | 38219 ft | 486 kts | 307° |
| 2026-05-01 11:46 | 51.56249 | 38.49864 | 38219 ft | 486 kts | 307° |
| 2026-05-01 11:46 | 51.60343 | 38.41193 | 38220 ft | 486 kts | 307° |
| 2026-05-01 11:47 | 51.64439 | 38.32507 | 38220 ft | 487 kts | 307° |
| 2026-05-01 11:47 | 51.68530 | 38.23839 | 38221 ft | 487 kts | 307° |
| 2026-05-01 11:48 | 51.72631 | 38.15135 | 38221 ft | 488 kts | 307° |
| 2026-05-01 11:48 | 51.76754 | 38.06425 | 38231 ft | 487 kts | 309° |
| 2026-05-01 11:49 | 51.81310 | 37.98276 | 38231 ft | 488 kts | 314° |
| 2026-05-01 11:49 | 51.86159 | 37.90661 | 38229 ft | 488 kts | 317° |
| 2026-05-01 11:50 | 51.91164 | 37.83218 | 38228 ft | 488 kts | 317° |
| 2026-05-01 11:50 | 51.96201 | 37.75833 | 38228 ft | 488 kts | 317° |
| 2026-05-01 11:51 | 52.01211 | 37.68387 | 38229 ft | 488 kts | 317° |
| 2026-05-01 11:51 | 52.06167 | 37.60953 | 38230 ft | 488 kts | 317° |
| 2026-05-01 11:52 | 52.11142 | 37.53448 | 38231 ft | 487 kts | 317° |
| 2026-05-01 11:52 | 52.16108 | 37.45920 | 38232 ft | 487 kts | 317° |
| 2026-05-01 11:53 | 52.21064 | 37.38376 | 38232 ft | 487 kts | 317° |
| 2026-05-01 11:53 | 52.26020 | 37.30800 | 38233 ft | 488 kts | 317° |
| 2026-05-01 11:54 | 52.30138 | 37.24487 | 38236 ft | 488 kts | 317° |
| 2026-05-01 11:54 | 52.36047 | 37.15903 | 38253 ft | 487 kts | 324° |
| 2026-05-01 11:55 | 52.40744 | 37.10808 | 38247 ft | 487 kts | 330° |
| 2026-05-01 11:55 | 52.46715 | 37.05391 | 38241 ft | 486 kts | 333° |
| 2026-05-01 11:56 | 52.52762 | 37.00418 | 38238 ft | 486 kts | 334° |
| 2026-05-01 11:56 | 52.58833 | 36.95678 | 38238 ft | 486 kts | 336° |
| 2026-05-01 11:57 | 52.65017 | 36.91006 | 38236 ft | 485 kts | 336° |
| 2026-05-01 11:57 | 52.71133 | 36.86414 | 38236 ft | 485 kts | 336° |
| 2026-05-01 11:58 | 52.77275 | 36.81715 | 38236 ft | 485 kts | 335° |
| 2026-05-01 11:59 | 52.86427 | 36.74570 | 38236 ft | 485 kts | 335° |
| 2026-05-01 11:59 | 52.92521 | 36.69771 | 38235 ft | 485 kts | 335° |
| 2026-05-01 12:00 | 53.01628 | 36.62407 | 38233 ft | 485 kts | 335° |
| 2026-05-01 12:01 | 53.10705 | 36.54991 | 38232 ft | 484 kts | 335° |
| 2026-05-01 12:01 | 53.16717 | 36.50088 | 38232 ft | 484 kts | 335° |
| 2026-05-01 12:02 | 53.22762 | 36.45137 | 38231 ft | 483 kts | 335° |
| 2026-05-01 12:02 | 53.28853 | 36.40172 | 38224 ft | 483 kts | 335° |
| 2026-05-01 12:03 | 53.34848 | 36.35251 | 38224 ft | 483 kts | 335° |
| 2026-05-01 12:03 | 53.40888 | 36.30312 | 38222 ft | 483 kts | 335° |
| 2026-05-01 12:04 | 53.46948 | 36.25450 | 38229 ft | 482 kts | 336° |
| 2026-05-01 12:04 | 53.53028 | 36.20650 | 38228 ft | 482 kts | 336° |
| 2026-05-01 12:05 | 53.59106 | 36.15860 | 38227 ft | 482 kts | 336° |
| 2026-05-01 12:05 | 53.68218 | 36.08655 | 38227 ft | 482 kts | 336° |
| 2026-05-01 12:06 | 53.74226 | 36.03791 | 38225 ft | 481 kts | 336° |
| 2026-05-01 12:06 | 53.80272 | 35.98933 | 38223 ft | 481 kts | 336° |
| 2026-05-01 12:07 | 53.86329 | 35.94111 | 38223 ft | 481 kts | 337° |
| 2026-05-01 12:07 | 53.92411 | 35.89386 | 38223 ft | 481 kts | 337° |
| 2026-05-01 12:08 | 53.98485 | 35.84579 | 38221 ft | 481 kts | 336° |
| 2026-05-01 12:08 | 54.04510 | 35.79636 | 38218 ft | 481 kts | 336° |
| 2026-05-01 12:09 | 54.10521 | 35.74624 | 38217 ft | 481 kts | 336° |
| 2026-05-01 12:09 | 54.16547 | 35.69701 | 38217 ft | 480 kts | 337° |
| 2026-05-01 12:10 | 54.25593 | 35.62403 | 38215 ft | 478 kts | 337° |
| 2026-05-01 12:11 | 54.34598 | 35.55078 | 38213 ft | 477 kts | 337° |
| 2026-05-01 12:11 | 54.40558 | 35.50194 | 38212 ft | 476 kts | 337° |
| 2026-05-01 12:12 | 54.46518 | 35.45250 | 38213 ft | 476 kts | 336° |
| 2026-05-01 12:12 | 54.52447 | 35.40200 | 38212 ft | 475 kts | 336° |
| 2026-05-01 12:13 | 54.58388 | 35.35177 | 38210 ft | 474 kts | 336° |
| 2026-05-01 12:13 | 54.64318 | 35.30171 | 38210 ft | 473 kts | 337° |
| 2026-05-01 12:14 | 54.70285 | 35.25421 | 38222 ft | 470 kts | 342° |
| 2026-05-01 12:14 | 54.76477 | 35.22114 | 38220 ft | 467 kts | 349° |
| 2026-05-01 12:15 | 54.82893 | 35.20073 | 38215 ft | 464 kts | 354° |
| 2026-05-01 12:15 | 54.89258 | 35.18846 | 38209 ft | 463 kts | 356° |
| 2026-05-01 12:16 | 54.95676 | 35.17888 | 38205 ft | 462 kts | 357° |
| 2026-05-01 12:16 | 55.02074 | 35.16859 | 38206 ft | 461 kts | 356° |
| 2026-05-01 12:17 | 55.08429 | 35.15715 | 38206 ft | 460 kts | 356° |
| 2026-05-01 12:17 | 55.14795 | 35.14465 | 38202 ft | 460 kts | 356° |
| 2026-05-01 12:18 | 55.21159 | 35.13361 | 38204 ft | 459 kts | 357° |
| 2026-05-01 12:18 | 55.27534 | 35.12523 | 38200 ft | 458 kts | 358° |
| 2026-05-01 12:19 | 55.33853 | 35.11762 | 38199 ft | 457 kts | 358° |
| 2026-05-01 12:19 | 55.40201 | 35.10975 | 38197 ft | 457 kts | 358° |
| 2026-05-01 12:20 | 55.46546 | 35.10182 | 38203 ft | 456 kts | 358° |
| 2026-05-01 12:20 | 55.52880 | 35.09412 | 38201 ft | 456 kts | 358° |
| 2026-05-01 12:21 | 55.59259 | 35.08585 | 38203 ft | 456 kts | 358° |
| 2026-05-01 12:21 | 55.65600 | 35.07771 | 38200 ft | 455 kts | 358° |
| 2026-05-01 12:22 | 55.71877 | 35.06978 | 38189 ft | 455 kts | 358° |
| 2026-05-01 12:22 | 55.78195 | 35.06190 | 38191 ft | 455 kts | 358° |
| 2026-05-01 12:23 | 55.84509 | 35.05401 | 38191 ft | 455 kts | 358° |
| 2026-05-01 12:23 | 55.90829 | 35.04588 | 38191 ft | 454 kts | 358° |
| 2026-05-01 12:24 | 55.97126 | 35.03692 | 38189 ft | 454 kts | 358° |
| 2026-05-01 12:24 | 56.03417 | 35.02740 | 38189 ft | 451 kts | 358° |
| 2026-05-01 12:25 | 56.12774 | 35.01441 | 38190 ft | 448 kts | 359° |
| 2026-05-01 12:26 | 56.18988 | 35.00675 | 38191 ft | 447 kts | 359° |
| 2026-05-01 12:26 | 56.28316 | 34.99535 | 38189 ft | 448 kts | 358° |
| 2026-05-01 12:27 | 56.37638 | 34.98303 | 38189 ft | 447 kts | 358° |
| 2026-05-01 12:28 | 56.46952 | 34.97554 | 38191 ft | 445 kts | 1° |
| 2026-05-01 12:29 | 56.56247 | 34.97117 | 38184 ft | 445 kts | 1° |
| 2026-05-01 12:29 | 56.65500 | 34.96576 | 38183 ft | 444 kts | 0° |
| 2026-05-01 12:30 | 56.74776 | 34.95862 | 38184 ft | 444 kts | 0° |
| 2026-05-01 12:31 | 56.79906 | 34.95589 | 38182 ft | 444 kts | 1° |
| 2026-05-01 12:31 | 56.86078 | 34.95156 | 38198 ft | 445 kts | 355° |
| 2026-05-01 12:32 | 56.92101 | 34.92177 | 38197 ft | 452 kts | 342° |
| 2026-05-01 12:32 | 57.00618 | 34.84480 | 38184 ft | 456 kts | 335° |
| 2026-05-01 12:33 | 57.06051 | 34.78550 | 38180 ft | 457 kts | 333° |
| 2026-05-01 12:33 | 57.11431 | 34.72314 | 38177 ft | 457 kts | 332° |
| 2026-05-01 12:34 | 57.16749 | 34.65915 | 38177 ft | 457 kts | 331° |
| 2026-05-01 12:34 | 57.22026 | 34.59412 | 38176 ft | 456 kts | 331° |
| 2026-05-01 12:35 | 57.27295 | 34.52859 | 38174 ft | 455 kts | 331° |
| 2026-05-01 12:35 | 57.32541 | 34.46298 | 38173 ft | 455 kts | 331° |
| 2026-05-01 12:36 | 57.37773 | 34.39739 | 38173 ft | 454 kts | 330° |
| 2026-05-01 12:36 | 57.42950 | 34.33146 | 38172 ft | 454 kts | 330° |
| 2026-05-01 12:37 | 57.48163 | 34.26530 | 38171 ft | 453 kts | 330° |
| 2026-05-01 12:37 | 57.53349 | 34.19892 | 38169 ft | 452 kts | 330° |
| 2026-05-01 12:38 | 57.58538 | 34.13281 | 38172 ft | 451 kts | 331° |
| 2026-05-01 12:38 | 57.63738 | 34.06666 | 38173 ft | 451 kts | 330° |
| 2026-05-01 12:39 | 57.68882 | 34.00063 | 38172 ft | 450 kts | 330° |
| 2026-05-01 12:39 | 57.74087 | 33.93531 | 38171 ft | 449 kts | 332° |
| 2026-05-01 12:40 | 57.79308 | 33.87082 | 38165 ft | 449 kts | 332° |
| 2026-05-01 12:40 | 57.84492 | 33.80524 | 38165 ft | 449 kts | 330° |
| 2026-05-01 12:41 | 57.89559 | 33.73706 | 38164 ft | 451 kts | 328° |
| 2026-05-01 12:41 | 57.94538 | 33.66485 | 38162 ft | 452 kts | 327° |
| 2026-05-01 12:42 | 57.99408 | 33.58947 | 38158 ft | 453 kts | 326° |
| 2026-05-01 12:42 | 58.04237 | 33.51263 | 38155 ft | 453 kts | 325° |
| 2026-05-01 12:43 | 58.09093 | 33.43697 | 38153 ft | 451 kts | 326° |
| 2026-05-01 12:43 | 58.13957 | 33.36189 | 38151 ft | 451 kts | 326° |
| 2026-05-01 12:44 | 58.18829 | 33.28679 | 38149 ft | 451 kts | 326° |
| 2026-05-01 12:45 | 58.28500 | 33.13635 | 38146 ft | 450 kts | 325° |
| 2026-05-01 12:45 | 58.33313 | 33.06042 | 38145 ft | 449 kts | 326° |
| 2026-05-01 12:46 | 58.38147 | 32.98540 | 38142 ft | 448 kts | 326° |
| 2026-05-01 12:46 | 58.43016 | 32.91095 | 38140 ft | 447 kts | 326° |
| 2026-05-01 12:47 | 58.47852 | 32.83720 | 38139 ft | 447 kts | 326° |
| 2026-05-01 12:47 | 58.52672 | 32.76183 | 38138 ft | 448 kts | 325° |
| 2026-05-01 12:48 | 58.57438 | 32.68487 | 38136 ft | 449 kts | 324° |
| 2026-05-01 12:48 | 58.62181 | 32.60672 | 38133 ft | 449 kts | 324° |
| 2026-05-01 12:49 | 58.66935 | 32.52913 | 38134 ft | 448 kts | 325° |
| 2026-05-01 12:49 | 58.71720 | 32.45237 | 38131 ft | 447 kts | 325° |
| 2026-05-01 12:50 | 58.76527 | 32.37647 | 38141 ft | 446 kts | 325° |
| 2026-05-01 12:50 | 58.81287 | 32.30096 | 38140 ft | 447 kts | 325° |
| 2026-05-01 12:51 | 58.86058 | 32.22372 | 38137 ft | 447 kts | 324° |
| 2026-05-01 12:51 | 58.90787 | 32.14552 | 37293 ft | 440 kts | 324° |
| 2026-05-01 12:52 | 58.93065 | 32.10739 | 36710 ft | 430 kts | 324° |
| 2026-05-01 12:52 | 58.97522 | 32.03216 | 34705 ft | 417 kts | 325° |
| 2026-05-01 12:52 | 58.99696 | 31.99622 | 33847 ft | 405 kts | 327° |
| 2026-05-01 12:53 | 59.03911 | 31.92861 | 31908 ft | 387 kts | 327° |
| 2026-05-01 12:53 | 59.05970 | 31.89564 | 30800 ft | 382 kts | 327° |
| 2026-05-01 12:53 | 59.08000 | 31.86284 | 29688 ft | 376 kts | 327° |
| 2026-05-01 12:54 | 59.09981 | 31.83007 | 28536 ft | 371 kts | 325° |
| 2026-05-01 12:54 | 59.13752 | 31.76317 | 26228 ft | 362 kts | 323° |
| 2026-05-01 12:54 | 59.15561 | 31.72932 | 25018 ft | 358 kts | 323° |
| 2026-05-01 12:55 | 59.19081 | 31.66331 | 22945 ft | 341 kts | 322° |
| 2026-05-01 12:55 | 59.20717 | 31.63199 | 22111 ft | 328 kts | 322° |
| 2026-05-01 12:55 | 59.22335 | 31.60048 | 20885 ft | 328 kts | 321° |
| 2026-05-01 12:56 | 59.23931 | 31.56908 | 19757 ft | 324 kts | 321° |
| 2026-05-01 12:56 | 59.25528 | 31.53835 | 18630 ft | 319 kts | 321° |
| 2026-05-01 12:56 | 59.27099 | 31.50825 | 17518 ft | 314 kts | 321° |
| 2026-05-01 12:56 | 59.28646 | 31.47854 | 16410 ft | 309 kts | 320° |
| 2026-05-01 12:57 | 59.30162 | 31.44915 | 15284 ft | 304 kts | 320° |
| 2026-05-01 12:57 | 59.33127 | 31.39132 | 13885 ft | 296 kts | 319° |
| 2026-05-01 12:57 | 59.34573 | 31.36279 | 13267 ft | 293 kts | 319° |
| 2026-05-01 12:58 | 59.35987 | 31.33489 | 12637 ft | 291 kts | 319° |
| 2026-05-01 12:58 | 59.37404 | 31.30664 | 12000 ft | 290 kts | 318° |
| 2026-05-01 12:58 | 59.38356 | 31.28759 | 11576 ft | 288 kts | 318° |
| 2026-05-01 12:59 | 59.41160 | 31.23277 | 10340 ft | 284 kts | 318° |
| 2026-05-01 12:59 | 59.42568 | 31.20578 | 9717 ft | 282 kts | 317° |
| 2026-05-01 12:59 | 59.45365 | 31.15182 | 8465 ft | 280 kts | 316° |
| 2026-05-01 13:00 | 59.48093 | 31.09800 | 7272 ft | 275 kts | 315° |
| 2026-05-01 13:00 | 59.49388 | 31.07183 | 6942 ft | 265 kts | 314° |
| 2026-05-01 13:01 | 59.51811 | 31.02034 | 6324 ft | 247 kts | 312° |
| 2026-05-01 13:01 | 59.52943 | 30.99529 | 5985 ft | 242 kts | 311° |
| 2026-05-01 13:01 | 59.55154 | 30.94647 | 5261 ft | 235 kts | 311° |
| 2026-05-01 13:02 | 59.56237 | 30.92236 | 4889 ft | 234 kts | 311° |
| 2026-05-01 13:07 | 59.76080 | 30.55771 | 2025 ft | 163 kts | 299° |
| 2026-05-01 13:07 | 59.76522 | 30.53741 | 2024 ft | 158 kts | 288° |
| 2026-05-01 13:07 | 59.76870 | 30.51701 | 1989 ft | 154 kts | 287° |
| 2026-05-01 13:08 | 59.77187 | 30.49725 | 2044 ft | 145 kts | 285° |
| 2026-05-01 13:08 | 59.77482 | 30.47792 | 1848 ft | 145 kts | 285° |
| 2026-05-01 13:08 | 59.77774 | 30.45875 | 1674 ft | 145 kts | 285° |
| 2026-05-01 13:08 | 59.78064 | 30.43959 | 1491 ft | 145 kts | 285° |
| 2026-05-01 13:09 | 59.78354 | 30.42055 | 1308 ft | 146 kts | 287° |
| 2026-05-01 13:09 | 59.78641 | 30.40120 | 1121 ft | 147 kts | 287° |
| 2026-05-01 13:09 | 59.78936 | 30.38170 | 933 ft | 147 kts | 287° |
| 2026-05-01 13:09 | 59.79232 | 30.36213 | 728 ft | 148 kts | 287° |
| 2026-05-01 13:10 | 59.79528 | 30.34244 | 519 ft | 148 kts | 287° |
| 2026-05-01 13:10 | 59.79818 | 30.32298 | 312 ft | 145 kts | 287° |
| 2026-05-01 13:10 | 59.80100 | 30.30406 | 133 ft | 140 kts | 287° |
| 2026-05-01 13:10 | 59.80359 | 30.28690 | 90 ft | 119 kts | 286° |
| 2026-05-01 13:11 | 59.80529 | 30.27538 | 89 ft | 61 kts | 286° |
| 2026-05-01 13:11 | 59.80595 | 30.27086 | 89 ft | 5 kts | 285° |
| 2026-05-01 13:11 | 59.80606 | 30.27004 | 89 ft | 7 kts | 285° |
| 2026-05-01 13:11 | 59.80623 | 30.26889 | 89 ft | 10 kts | 287° |
| 2026-05-01 13:12 | 59.80644 | 30.26745 | 89 ft | 12 kts | 272° |
| 2026-05-01 13:12 | 59.80594 | 30.26636 | 89 ft | 12 kts | 197° |
| 2026-05-01 13:12 | 59.80522 | 30.26594 | 89 ft | 8 kts | 198° |
| 2026-05-01 13:12 | 59.80464 | 30.26573 | 89 ft | 10 kts | 154° |
| 2026-05-01 13:13 | 59.80423 | 30.26693 | 89 ft | 12 kts | 108° |
| 2026-05-01 13:13 | 59.80377 | 30.26796 | 89 ft | 12 kts | 181° |
| 2026-05-01 13:13 | 59.80327 | 30.26779 | 89 ft | 0 kts | 196° |
| 2026-05-01 13:14 | 59.80322 | 30.26776 | 89 ft | 2 kts | 196° |
| 2026-05-01 13:15 | 59.80296 | 30.26760 | 89 ft | 5 kts | 197° |
| 2026-05-01 13:15 | 59.80249 | 30.26732 | 89 ft | 9 kts | 197° |
| 2026-05-01 13:15 | 59.80183 | 30.26692 | 89 ft | 11 kts | 197° |
| 2026-05-01 13:15 | 59.80097 | 30.26641 | 89 ft | 14 kts | 196° |
| 2026-05-01 13:16 | 59.80029 | 30.26601 | 89 ft | 16 kts | 196° |
| 2026-05-01 13:16 | 59.79947 | 30.26555 | 89 ft | 7 kts | 195° |
| 2026-05-01 13:16 | 59.79896 | 30.26585 | 89 ft | 9 kts | 118° |
| 2026-05-01 13:17 | 59.79873 | 30.26728 | 89 ft | 0 kts | 106° |